sensor_id;sensor_type;location;lat;lon;timestamp;P1;durP1;ratioP1;P2;durP2;ratioP2
1376;SDS011;682;52.502;13.488;2022-12-07T00:01:43;21.65;;;13.95;;
1376;SDS011;682;52.502;13.488;2022-12-07T00:04:16;16.90;;;9.30;;
1376;SDS011;682;52.502;13.488;2022-12-07T00:06:44;18.45;;;9.90;;
1376;SDS011;682;52.502;13.488;2022-12-07T00:09:18;17.45;;;9.93;;
1376;SDS011;682;52.502;13.488;2022-12-07T00:11:49;17.13;;;9.50;;
1376;SDS011;682;52.502;13.488;2022-12-07T00:14:16;18.45;;;10.02;;
1376;SDS011;682;52.502;13.488;2022-12-07T00:16:50;16.92;;;9.13;;
1376;SDS011;682;52.502;13.488;2022-12-07T00:19:20;17.45;;;9.73;;
1376;SDS011;682;52.502;13.488;2022-12-07T00:21:55;17.08;;;8.90;;
1376;SDS011;682;52.502;13.488;2022-12-07T00:24:22;13.70;;;8.40;;
1376;SDS011;682;52.502;13.488;2022-12-07T00:26:54;15.80;;;8.90;;
1376;SDS011;682;52.502;13.488;2022-12-07T00:29:22;21.65;;;9.43;;
1376;SDS011;682;52.502;13.488;2022-12-07T00:31:54;18.45;;;10.30;;
1376;SDS011;682;52.502;13.488;2022-12-07T00:34:22;16.67;;;9.40;;
1376;SDS011;682;52.502;13.488;2022-12-07T00:36:54;14.10;;;7.78;;
1376;SDS011;682;52.502;13.488;2022-12-07T00:39:22;13.10;;;7.80;;
1376;SDS011;682;52.502;13.488;2022-12-07T00:41:56;17.25;;;9.35;;
1376;SDS011;682;52.502;13.488;2022-12-07T00:44:24;14.10;;;8.75;;
1376;SDS011;682;52.502;13.488;2022-12-07T00:46:54;15.68;;;9.27;;
1376;SDS011;682;52.502;13.488;2022-12-07T00:49:22;16.55;;;9.88;;
1376;SDS011;682;52.502;13.488;2022-12-07T00:51:55;13.90;;;7.63;;
1376;SDS011;682;52.502;13.488;2022-12-07T00:54:22;15.45;;;9.50;;
1376;SDS011;682;52.502;13.488;2022-12-07T00:56:53;14.70;;;8.70;;
1376;SDS011;682;52.502;13.488;2022-12-07T00:59:20;14.45;;;9.02;;
1376;SDS011;682;52.502;13.488;2022-12-07T01:01:47;14.70;;;9.15;;
1376;SDS011;682;52.502;13.488;2022-12-07T01:04:14;16.30;;;9.57;;
1376;SDS011;682;52.502;13.488;2022-12-07T01:06:41;14.13;;;7.75;;
1376;SDS011;682;52.502;13.488;2022-12-07T01:09:10;15.05;;;8.73;;
1376;SDS011;682;52.502;13.488;2022-12-07T01:11:38;13.63;;;8.20;;
1376;SDS011;682;52.502;13.488;2022-12-07T01:14:06;13.20;;;8.70;;
1376;SDS011;682;52.502;13.488;2022-12-07T01:16:38;13.48;;;8.60;;
1376;SDS011;682;52.502;13.488;2022-12-07T01:19:05;14.68;;;8.30;;
1376;SDS011;682;52.502;13.488;2022-12-07T01:21:32;13.00;;;7.28;;
1376;SDS011;682;52.502;13.488;2022-12-07T01:24:05;13.32;;;8.35;;
1376;SDS011;682;52.502;13.488;2022-12-07T01:26:40;14.13;;;7.88;;
1376;SDS011;682;52.502;13.488;2022-12-07T01:29:10;13.02;;;8.00;;
1376;SDS011;682;52.502;13.488;2022-12-07T01:31:47;13.32;;;7.45;;
1376;SDS011;682;52.502;13.488;2022-12-07T01:34:20;12.25;;;7.90;;
1376;SDS011;682;52.502;13.488;2022-12-07T01:36:47;11.35;;;7.10;;
1376;SDS011;682;52.502;13.488;2022-12-07T01:39:18;11.80;;;7.30;;
1376;SDS011;682;52.502;13.488;2022-12-07T01:41:47;12.27;;;7.40;;
1376;SDS011;682;52.502;13.488;2022-12-07T01:44:20;13.35;;;7.68;;
1376;SDS011;682;52.502;13.488;2022-12-07T01:46:49;13.00;;;7.35;;
1376;SDS011;682;52.502;13.488;2022-12-07T01:49:24;12.95;;;7.78;;
1376;SDS011;682;52.502;13.488;2022-12-07T01:52:01;12.80;;;7.88;;
1376;SDS011;682;52.502;13.488;2022-12-07T01:54:38;15.35;;;8.13;;
1376;SDS011;682;52.502;13.488;2022-12-07T01:57:09;13.43;;;7.03;;
1376;SDS011;682;52.502;13.488;2022-12-07T01:59:38;11.77;;;7.28;;
1376;SDS011;682;52.502;13.488;2022-12-07T02:02:10;13.32;;;8.10;;
1376;SDS011;682;52.502;13.488;2022-12-07T02:04:45;13.07;;;7.72;;
1376;SDS011;682;52.502;13.488;2022-12-07T02:07:19;11.40;;;6.45;;
1376;SDS011;682;52.502;13.488;2022-12-07T02:09:49;10.68;;;5.97;;
1376;SDS011;682;52.502;13.488;2022-12-07T02:12:20;10.50;;;5.85;;
1376;SDS011;682;52.502;13.488;2022-12-07T02:14:48;13.52;;;6.43;;
1376;SDS011;682;52.502;13.488;2022-12-07T02:17:19;15.07;;;7.65;;
1376;SDS011;682;52.502;13.488;2022-12-07T02:20:03;11.35;;;6.55;;
1376;SDS011;682;52.502;13.488;2022-12-07T02:22:52;11.40;;;6.43;;
1376;SDS011;682;52.502;13.488;2022-12-07T02:26:08;12.18;;;7.15;;
1376;SDS011;682;52.502;13.488;2022-12-07T02:29:03;10.80;;;6.15;;
1376;SDS011;682;52.502;13.488;2022-12-07T02:31:44;11.43;;;6.15;;
1376;SDS011;682;52.502;13.488;2022-12-07T02:34:22;11.32;;;6.18;;
1376;SDS011;682;52.502;13.488;2022-12-07T02:37:00;11.40;;;6.50;;
1376;SDS011;682;52.502;13.488;2022-12-07T02:39:40;11.18;;;6.40;;
1376;SDS011;682;52.502;13.488;2022-12-07T02:42:13;12.32;;;6.57;;
1376;SDS011;682;52.502;13.488;2022-12-07T02:44:46;11.48;;;6.00;;
1376;SDS011;682;52.502;13.488;2022-12-07T02:47:15;12.00;;;7.05;;
1376;SDS011;682;52.502;13.488;2022-12-07T02:49:46;11.20;;;6.75;;
1376;SDS011;682;52.502;13.488;2022-12-07T02:52:18;11.52;;;5.32;;
1376;SDS011;682;52.502;13.488;2022-12-07T02:54:46;10.48;;;6.65;;
1376;SDS011;682;52.502;13.488;2022-12-07T02:57:19;10.23;;;6.63;;
1376;SDS011;682;52.502;13.488;2022-12-07T03:00:01;11.60;;;6.15;;
1376;SDS011;682;52.502;13.488;2022-12-07T03:02:41;10.50;;;5.97;;
1376;SDS011;682;52.502;13.488;2022-12-07T03:08:25;11.55;;;5.95;;
1376;SDS011;682;52.502;13.488;2022-12-07T03:11:01;11.95;;;6.72;;
1376;SDS011;682;52.502;13.488;2022-12-07T03:13:33;11.38;;;6.75;;
1376;SDS011;682;52.502;13.488;2022-12-07T03:16:10;11.60;;;6.75;;
1376;SDS011;682;52.502;13.488;2022-12-07T03:19:01;11.73;;;6.05;;
1376;SDS011;682;52.502;13.488;2022-12-07T03:21:39;12.57;;;6.70;;
1376;SDS011;682;52.502;13.488;2022-12-07T03:24:12;11.10;;;6.30;;
1376;SDS011;682;52.502;13.488;2022-12-07T03:27:03;14.95;;;7.32;;
1376;SDS011;682;52.502;13.488;2022-12-07T03:29:42;14.50;;;8.10;;
1376;SDS011;682;52.502;13.488;2022-12-07T03:32:14;12.95;;;7.70;;
1376;SDS011;682;52.502;13.488;2022-12-07T03:34:50;11.73;;;6.55;;
1376;SDS011;682;52.502;13.488;2022-12-07T03:37:29;13.93;;;8.10;;
1376;SDS011;682;52.502;13.488;2022-12-07T03:40:02;12.57;;;7.60;;
1376;SDS011;682;52.502;13.488;2022-12-07T03:42:33;11.23;;;7.32;;
1376;SDS011;682;52.502;13.488;2022-12-07T03:45:06;11.77;;;7.13;;
1376;SDS011;682;52.502;13.488;2022-12-07T03:47:43;12.13;;;6.95;;
1376;SDS011;682;52.502;13.488;2022-12-07T03:50:21;12.65;;;7.95;;
1376;SDS011;682;52.502;13.488;2022-12-07T03:52:59;12.57;;;7.70;;
1376;SDS011;682;52.502;13.488;2022-12-07T03:55:32;13.80;;;8.20;;
1376;SDS011;682;52.502;13.488;2022-12-07T03:58:10;12.95;;;7.60;;
1376;SDS011;682;52.502;13.488;2022-12-07T04:00:45;14.07;;;8.38;;
1376;SDS011;682;52.502;13.488;2022-12-07T04:03:14;15.43;;;8.43;;
1376;SDS011;682;52.502;13.488;2022-12-07T04:05:41;15.15;;;8.05;;
1376;SDS011;682;52.502;13.488;2022-12-07T04:08:15;14.50;;;9.00;;
1376;SDS011;682;52.502;13.488;2022-12-07T04:10:49;14.65;;;8.68;;
1376;SDS011;682;52.502;13.488;2022-12-07T04:13:20;14.60;;;9.82;;
1376;SDS011;682;52.502;13.488;2022-12-07T04:16:19;15.52;;;9.45;;
1376;SDS011;682;52.502;13.488;2022-12-07T04:18:50;14.60;;;9.23;;
1376;SDS011;682;52.502;13.488;2022-12-07T04:21:19;15.35;;;9.43;;
1376;SDS011;682;52.502;13.488;2022-12-07T04:23:49;15.15;;;9.05;;
1376;SDS011;682;52.502;13.488;2022-12-07T04:26:54;16.98;;;10.30;;
1376;SDS011;682;52.502;13.488;2022-12-07T04:29:19;17.13;;;10.43;;
1376;SDS011;682;52.502;13.488;2022-12-07T04:31:47;22.75;;;11.77;;
1376;SDS011;682;52.502;13.488;2022-12-07T04:34:19;18.30;;;10.55;;
1376;SDS011;682;52.502;13.488;2022-12-07T04:36:49;22.00;;;11.30;;
1376;SDS011;682;52.502;13.488;2022-12-07T04:39:20;21.42;;;12.48;;
1376;SDS011;682;52.502;13.488;2022-12-07T04:41:50;21.63;;;12.68;;
1376;SDS011;682;52.502;13.488;2022-12-07T04:44:21;20.73;;;12.80;;
1376;SDS011;682;52.502;13.488;2022-12-07T04:46:49;21.55;;;13.18;;
1376;SDS011;682;52.502;13.488;2022-12-07T04:49:21;22.85;;;12.60;;
1376;SDS011;682;52.502;13.488;2022-12-07T04:51:54;24.15;;;13.85;;
1376;SDS011;682;52.502;13.488;2022-12-07T04:54:29;20.92;;;13.00;;
1376;SDS011;682;52.502;13.488;2022-12-07T04:56:56;22.30;;;13.40;;
1376;SDS011;682;52.502;13.488;2022-12-07T04:59:23;21.55;;;13.55;;
1376;SDS011;682;52.502;13.488;2022-12-07T05:01:55;25.95;;;14.80;;
1376;SDS011;682;52.502;13.488;2022-12-07T05:04:42;23.42;;;15.32;;
1376;SDS011;682;52.502;13.488;2022-12-07T05:07:11;23.42;;;15.00;;
1376;SDS011;682;52.502;13.488;2022-12-07T05:09:50;26.58;;;14.32;;
1376;SDS011;682;52.502;13.488;2022-12-07T05:12:20;26.15;;;16.50;;
1376;SDS011;682;52.502;13.488;2022-12-07T05:14:49;25.00;;;14.52;;
1376;SDS011;682;52.502;13.488;2022-12-07T05:17:19;24.80;;;14.93;;
1376;SDS011;682;52.502;13.488;2022-12-07T05:19:48;24.20;;;14.52;;
1376;SDS011;682;52.502;13.488;2022-12-07T05:22:19;24.90;;;15.35;;
1376;SDS011;682;52.502;13.488;2022-12-07T05:24:46;26.10;;;14.82;;
1376;SDS011;682;52.502;13.488;2022-12-07T05:27:13;26.00;;;16.02;;
1376;SDS011;682;52.502;13.488;2022-12-07T05:29:45;27.55;;;16.13;;
1376;SDS011;682;52.502;13.488;2022-12-07T05:32:12;27.17;;;16.75;;
1376;SDS011;682;52.502;13.488;2022-12-07T05:34:42;27.95;;;18.00;;
1376;SDS011;682;52.502;13.488;2022-12-07T05:37:10;29.13;;;17.52;;
1376;SDS011;682;52.502;13.488;2022-12-07T05:39:39;26.60;;;16.63;;
1376;SDS011;682;52.502;13.488;2022-12-07T05:42:08;26.05;;;15.85;;
1376;SDS011;682;52.502;13.488;2022-12-07T05:44:46;30.67;;;17.02;;
1376;SDS011;682;52.502;13.488;2022-12-07T05:47:19;28.15;;;17.77;;
1376;SDS011;682;52.502;13.488;2022-12-07T05:49:46;30.52;;;17.85;;
1376;SDS011;682;52.502;13.488;2022-12-07T05:52:22;29.67;;;16.33;;
1376;SDS011;682;52.502;13.488;2022-12-07T05:54:51;30.83;;;18.58;;
1376;SDS011;682;52.502;13.488;2022-12-07T05:57:26;30.73;;;18.33;;
1376;SDS011;682;52.502;13.488;2022-12-07T05:59:53;30.48;;;17.95;;
1376;SDS011;682;52.502;13.488;2022-12-07T06:02:20;30.23;;;19.15;;
1376;SDS011;682;52.502;13.488;2022-12-07T06:04:47;29.17;;;17.65;;
1376;SDS011;682;52.502;13.488;2022-12-07T06:07:22;29.70;;;17.58;;
1376;SDS011;682;52.502;13.488;2022-12-07T06:09:49;34.17;;;18.52;;
1376;SDS011;682;52.502;13.488;2022-12-07T06:12:19;27.70;;;17.98;;
1376;SDS011;682;52.502;13.488;2022-12-07T06:15:04;28.50;;;17.48;;
1376;SDS011;682;52.502;13.488;2022-12-07T06:17:41;33.35;;;20.02;;
1376;SDS011;682;52.502;13.488;2022-12-07T06:20:08;29.63;;;18.08;;
1376;SDS011;682;52.502;13.488;2022-12-07T06:22:41;33.88;;;20.33;;
1376;SDS011;682;52.502;13.488;2022-12-07T06:25:08;32.05;;;18.92;;
1376;SDS011;682;52.502;13.488;2022-12-07T06:27:39;33.70;;;17.92;;
1376;SDS011;682;52.502;13.488;2022-12-07T06:30:06;30.90;;;18.90;;
1376;SDS011;682;52.502;13.488;2022-12-07T06:32:46;35.45;;;19.98;;
1376;SDS011;682;52.502;13.488;2022-12-07T06:35:13;32.15;;;19.45;;
1376;SDS011;682;52.502;13.488;2022-12-07T06:37:48;34.85;;;19.80;;
1376;SDS011;682;52.502;13.488;2022-12-07T06:40:19;30.23;;;18.25;;
1376;SDS011;682;52.502;13.488;2022-12-07T06:42:47;28.50;;;17.17;;
1376;SDS011;682;52.502;13.488;2022-12-07T06:45:19;32.33;;;18.65;;
1376;SDS011;682;52.502;13.488;2022-12-07T06:47:46;36.50;;;19.80;;
1376;SDS011;682;52.502;13.488;2022-12-07T06:50:19;28.45;;;17.73;;
1376;SDS011;682;52.502;13.488;2022-12-07T06:52:48;32.17;;;18.67;;
1376;SDS011;682;52.502;13.488;2022-12-07T06:55:19;30.55;;;17.48;;
1376;SDS011;682;52.502;13.488;2022-12-07T06:57:47;33.58;;;18.95;;
1376;SDS011;682;52.502;13.488;2022-12-07T07:00:19;30.83;;;18.55;;
1376;SDS011;682;52.502;13.488;2022-12-07T07:02:47;32.92;;;19.73;;
1376;SDS011;682;52.502;13.488;2022-12-07T07:05:23;29.58;;;18.73;;
1376;SDS011;682;52.502;13.488;2022-12-07T07:07:52;33.20;;;20.23;;
1376;SDS011;682;52.502;13.488;2022-12-07T07:10:29;32.78;;;19.40;;
1376;SDS011;682;52.502;13.488;2022-12-07T07:12:59;32.90;;;20.30;;
1376;SDS011;682;52.502;13.488;2022-12-07T07:15:27;34.67;;;19.60;;
1376;SDS011;682;52.502;13.488;2022-12-07T07:17:59;28.60;;;20.33;;
1376;SDS011;682;52.502;13.488;2022-12-07T07:20:28;32.50;;;19.70;;
1376;SDS011;682;52.502;13.488;2022-12-07T07:22:59;29.65;;;18.10;;
1376;SDS011;682;52.502;13.488;2022-12-07T07:25:28;33.28;;;21.20;;
1376;SDS011;682;52.502;13.488;2022-12-07T07:28:00;30.63;;;19.00;;
1376;SDS011;682;52.502;13.488;2022-12-07T07:30:27;31.17;;;18.95;;
1376;SDS011;682;52.502;13.488;2022-12-07T07:33:00;31.63;;;20.38;;
1376;SDS011;682;52.502;13.488;2022-12-07T07:35:28;32.88;;;19.80;;
1376;SDS011;682;52.502;13.488;2022-12-07T07:38:01;32.97;;;20.08;;
1376;SDS011;682;52.502;13.488;2022-12-07T07:40:28;27.65;;;18.00;;
1376;SDS011;682;52.502;13.488;2022-12-07T07:42:59;32.67;;;16.65;;
1376;SDS011;682;52.502;13.488;2022-12-07T07:45:27;26.90;;;16.55;;
1376;SDS011;682;52.502;13.488;2022-12-07T07:48:04;29.73;;;17.10;;
1376;SDS011;682;52.502;13.488;2022-12-07T07:50:39;25.88;;;16.38;;
1376;SDS011;682;52.502;13.488;2022-12-07T07:53:09;25.75;;;16.65;;
1376;SDS011;682;52.502;13.488;2022-12-07T07:55:39;25.83;;;14.55;;
1376;SDS011;682;52.502;13.488;2022-12-07T07:58:06;25.02;;;16.27;;
1376;SDS011;682;52.502;13.488;2022-12-07T08:00:33;27.77;;;17.05;;
1376;SDS011;682;52.502;13.488;2022-12-07T08:03:05;26.77;;;13.75;;
1376;SDS011;682;52.502;13.488;2022-12-07T08:05:32;25.60;;;17.05;;
1376;SDS011;682;52.502;13.488;2022-12-07T08:08:00;24.67;;;14.70;;
1376;SDS011;682;52.502;13.488;2022-12-07T08:10:30;22.83;;;12.75;;
1376;SDS011;682;52.502;13.488;2022-12-07T08:13:05;18.23;;;11.68;;
1376;SDS011;682;52.502;13.488;2022-12-07T08:15:40;21.20;;;11.75;;
1376;SDS011;682;52.502;13.488;2022-12-07T08:18:08;21.27;;;13.52;;
1376;SDS011;682;52.502;13.488;2022-12-07T08:20:40;20.67;;;12.80;;
1376;SDS011;682;52.502;13.488;2022-12-07T08:23:08;16.13;;;10.73;;
1376;SDS011;682;52.502;13.488;2022-12-07T08:25:42;17.70;;;11.00;;
1376;SDS011;682;52.502;13.488;2022-12-07T08:28:10;17.70;;;11.10;;
1376;SDS011;682;52.502;13.488;2022-12-07T08:30:40;16.17;;;9.65;;
1376;SDS011;682;52.502;13.488;2022-12-07T08:33:08;16.13;;;9.25;;
1376;SDS011;682;52.502;13.488;2022-12-07T08:35:41;16.60;;;9.60;;
1376;SDS011;682;52.502;13.488;2022-12-07T08:38:08;13.52;;;8.60;;
1376;SDS011;682;52.502;13.488;2022-12-07T08:40:38;15.32;;;8.98;;
1376;SDS011;682;52.502;13.488;2022-12-07T08:43:08;13.35;;;8.32;;
1376;SDS011;682;52.502;13.488;2022-12-07T08:45:41;14.48;;;9.20;;
1376;SDS011;682;52.502;13.488;2022-12-07T08:48:09;15.02;;;8.70;;
1376;SDS011;682;52.502;13.488;2022-12-07T08:50:45;11.15;;;6.93;;
1376;SDS011;682;52.502;13.488;2022-12-07T08:53:12;12.63;;;6.93;;
1376;SDS011;682;52.502;13.488;2022-12-07T08:55:50;11.23;;;6.45;;
1376;SDS011;682;52.502;13.488;2022-12-07T08:58:20;12.13;;;5.85;;
1376;SDS011;682;52.502;13.488;2022-12-07T09:00:46;9.02;;;5.38;;
1376;SDS011;682;52.502;13.488;2022-12-07T09:03:14;11.25;;;5.65;;
1376;SDS011;682;52.502;13.488;2022-12-07T09:05:45;8.77;;;4.60;;
1376;SDS011;682;52.502;13.488;2022-12-07T09:08:22;8.60;;;4.57;;
1376;SDS011;682;52.502;13.488;2022-12-07T09:10:59;8.18;;;4.10;;
1376;SDS011;682;52.502;13.488;2022-12-07T09:13:28;8.15;;;4.03;;
1376;SDS011;682;52.502;13.488;2022-12-07T09:15:56;9.02;;;3.63;;
1376;SDS011;682;52.502;13.488;2022-12-07T09:18:26;8.30;;;4.45;;
1376;SDS011;682;52.502;13.488;2022-12-07T09:21:00;8.70;;;3.40;;
1376;SDS011;682;52.502;13.488;2022-12-07T09:23:27;7.95;;;3.90;;
1376;SDS011;682;52.502;13.488;2022-12-07T09:26:01;7.75;;;2.92;;
1376;SDS011;682;52.502;13.488;2022-12-07T09:28:31;6.22;;;2.60;;
1376;SDS011;682;52.502;13.488;2022-12-07T09:31:12;6.80;;;2.60;;
1376;SDS011;682;52.502;13.488;2022-12-07T09:33:40;6.60;;;2.50;;
1376;SDS011;682;52.502;13.488;2022-12-07T09:36:07;6.70;;;2.67;;
1376;SDS011;682;52.502;13.488;2022-12-07T09:38:40;7.78;;;2.65;;
1376;SDS011;682;52.502;13.488;2022-12-07T09:41:13;8.15;;;3.28;;
1376;SDS011;682;52.502;13.488;2022-12-07T09:43:47;6.63;;;2.72;;
1376;SDS011;682;52.502;13.488;2022-12-07T09:46:20;12.10;;;2.97;;
1376;SDS011;682;52.502;13.488;2022-12-07T09:48:52;7.68;;;3.38;;
1376;SDS011;682;52.502;13.488;2022-12-07T09:51:20;7.70;;;3.35;;
1376;SDS011;682;52.502;13.488;2022-12-07T09:53:49;7.53;;;2.72;;
1376;SDS011;682;52.502;13.488;2022-12-07T09:56:32;8.00;;;3.08;;
1376;SDS011;682;52.502;13.488;2022-12-07T09:59:13;8.05;;;3.58;;
1376;SDS011;682;52.502;13.488;2022-12-07T10:01:47;7.20;;;2.75;;
1376;SDS011;682;52.502;13.488;2022-12-07T10:04:26;7.07;;;3.33;;
1376;SDS011;682;52.502;13.488;2022-12-07T10:07:03;7.60;;;3.65;;
1376;SDS011;682;52.502;13.488;2022-12-07T10:09:40;7.05;;;2.65;;
1376;SDS011;682;52.502;13.488;2022-12-07T10:12:11;6.55;;;2.72;;
1376;SDS011;682;52.502;13.488;2022-12-07T10:14:54;7.95;;;2.83;;
1376;SDS011;682;52.502;13.488;2022-12-07T10:17:30;7.68;;;2.90;;
1376;SDS011;682;52.502;13.488;2022-12-07T10:20:25;7.30;;;2.80;;
1376;SDS011;682;52.502;13.488;2022-12-07T10:23:03;9.68;;;4.07;;
1376;SDS011;682;52.502;13.488;2022-12-07T10:25:54;6.45;;;2.60;;
1376;SDS011;682;52.502;13.488;2022-12-07T10:28:50;6.65;;;2.90;;
1376;SDS011;682;52.502;13.488;2022-12-07T10:31:21;6.55;;;2.97;;
1376;SDS011;682;52.502;13.488;2022-12-07T10:33:53;8.75;;;3.25;;
1376;SDS011;682;52.502;13.488;2022-12-07T10:36:47;7.13;;;3.00;;
1376;SDS011;682;52.502;13.488;2022-12-07T10:39:21;8.48;;;4.30;;
1376;SDS011;682;52.502;13.488;2022-12-07T10:41:53;9.82;;;2.70;;
1376;SDS011;682;52.502;13.488;2022-12-07T10:44:42;7.95;;;3.22;;
1376;SDS011;682;52.502;13.488;2022-12-07T10:47:25;6.43;;;2.92;;
1376;SDS011;682;52.502;13.488;2022-12-07T10:50:10;6.80;;;2.90;;
1376;SDS011;682;52.502;13.488;2022-12-07T10:56:06;7.45;;;3.30;;
1376;SDS011;682;52.502;13.488;2022-12-07T10:59:13;7.38;;;3.10;;
1376;SDS011;682;52.502;13.488;2022-12-07T11:02:15;6.40;;;3.35;;
1376;SDS011;682;52.502;13.488;2022-12-07T11:05:05;6.95;;;3.13;;
1376;SDS011;682;52.502;13.488;2022-12-07T11:07:42;8.60;;;2.97;;
1376;SDS011;682;52.502;13.488;2022-12-07T11:10:21;7.05;;;3.45;;
1376;SDS011;682;52.502;13.488;2022-12-07T11:12:57;9.57;;;4.20;;
1376;SDS011;682;52.502;13.488;2022-12-07T11:15:52;7.20;;;3.80;;
1376;SDS011;682;52.502;13.488;2022-12-07T11:18:41;6.97;;;3.80;;
1376;SDS011;682;52.502;13.488;2022-12-07T11:21:28;8.20;;;4.00;;
1376;SDS011;682;52.502;13.488;2022-12-07T11:24:06;9.57;;;4.35;;
1376;SDS011;682;52.502;13.488;2022-12-07T11:26:54;9.20;;;4.65;;
1376;SDS011;682;52.502;13.488;2022-12-07T11:29:35;10.98;;;5.47;;
1376;SDS011;682;52.502;13.488;2022-12-07T11:32:22;10.90;;;5.30;;
1376;SDS011;682;52.502;13.488;2022-12-07T11:35:14;9.85;;;4.20;;
1376;SDS011;682;52.502;13.488;2022-12-07T11:37:54;9.60;;;4.57;;
1376;SDS011;682;52.502;13.488;2022-12-07T11:40:28;11.20;;;4.85;;
1376;SDS011;682;52.502;13.488;2022-12-07T11:43:01;11.73;;;5.50;;
1376;SDS011;682;52.502;13.488;2022-12-07T11:45:32;17.50;;;5.07;;
1376;SDS011;682;52.502;13.488;2022-12-07T11:48:06;9.73;;;4.95;;
1376;SDS011;682;52.502;13.488;2022-12-07T11:50:45;11.43;;;5.72;;
1376;SDS011;682;52.502;13.488;2022-12-07T11:53:21;9.80;;;5.03;;
1376;SDS011;682;52.502;13.488;2022-12-07T11:55:54;11.57;;;5.45;;
1376;SDS011;682;52.502;13.488;2022-12-07T11:58:44;9.30;;;5.13;;
1376;SDS011;682;52.502;13.488;2022-12-07T12:01:22;15.82;;;8.40;;
1376;SDS011;682;52.502;13.488;2022-12-07T12:04:14;11.75;;;5.60;;
1376;SDS011;682;52.502;13.488;2022-12-07T12:07:10;9.02;;;5.00;;
1376;SDS011;682;52.502;13.488;2022-12-07T12:09:49;10.90;;;6.00;;
1376;SDS011;682;52.502;13.488;2022-12-07T12:15:44;20.20;;;5.18;;
1376;SDS011;682;52.502;13.488;2022-12-07T12:21:19;9.40;;;4.03;;
1376;SDS011;682;52.502;13.488;2022-12-07T12:24:09;8.70;;;4.10;;
1376;SDS011;682;52.502;13.488;2022-12-07T12:26:48;11.00;;;4.40;;
1376;SDS011;682;52.502;13.488;2022-12-07T12:29:21;9.45;;;4.35;;
1376;SDS011;682;52.502;13.488;2022-12-07T12:32:04;17.13;;;5.53;;
1376;SDS011;682;52.502;13.488;2022-12-07T12:35:03;13.05;;;4.95;;
1376;SDS011;682;52.502;13.488;2022-12-07T12:40:55;7.75;;;3.75;;
1376;SDS011;682;52.502;13.488;2022-12-07T12:43:42;9.23;;;4.20;;
1376;SDS011;682;52.502;13.488;2022-12-07T12:58:29;8.63;;;3.90;;
1376;SDS011;682;52.502;13.488;2022-12-07T13:04:31;12.52;;;3.90;;
1376;SDS011;682;52.502;13.488;2022-12-07T13:10:22;9.40;;;3.80;;
1376;SDS011;682;52.502;13.488;2022-12-07T13:25:33;11.60;;;5.00;;
1376;SDS011;682;52.502;13.488;2022-12-07T13:28:14;9.55;;;3.60;;
1376;SDS011;682;52.502;13.488;2022-12-07T13:30:46;12.32;;;3.97;;
1376;SDS011;682;52.502;13.488;2022-12-07T13:33:37;13.73;;;3.85;;
1376;SDS011;682;52.502;13.488;2022-12-07T13:36:12;10.65;;;4.38;;
1376;SDS011;682;52.502;13.488;2022-12-07T13:38:52;8.15;;;3.60;;
1376;SDS011;682;52.502;13.488;2022-12-07T13:41:22;9.90;;;3.50;;
1376;SDS011;682;52.502;13.488;2022-12-07T13:44:00;9.35;;;4.60;;
1376;SDS011;682;52.502;13.488;2022-12-07T13:46:32;10.85;;;3.85;;
1376;SDS011;682;52.502;13.488;2022-12-07T13:49:18;10.43;;;3.88;;
1376;SDS011;682;52.502;13.488;2022-12-07T13:51:50;14.15;;;4.03;;
1376;SDS011;682;52.502;13.488;2022-12-07T13:54:22;13.15;;;3.63;;
1376;SDS011;682;52.502;13.488;2022-12-07T13:56:51;10.63;;;3.13;;
1376;SDS011;682;52.502;13.488;2022-12-07T13:59:21;12.68;;;3.83;;
1376;SDS011;682;52.502;13.488;2022-12-07T14:01:59;8.25;;;3.17;;
1376;SDS011;682;52.502;13.488;2022-12-07T14:04:31;10.60;;;3.88;;
1376;SDS011;682;52.502;13.488;2022-12-07T14:07:01;10.70;;;4.70;;
1376;SDS011;682;52.502;13.488;2022-12-07T14:10:00;10.63;;;4.65;;
1376;SDS011;682;52.502;13.488;2022-12-07T14:12:32;8.23;;;3.33;;
1376;SDS011;682;52.502;13.488;2022-12-07T14:15:03;11.73;;;4.03;;
1376;SDS011;682;52.502;13.488;2022-12-07T14:17:38;11.00;;;3.97;;
1376;SDS011;682;52.502;13.488;2022-12-07T14:20:30;13.07;;;4.32;;
1376;SDS011;682;52.502;13.488;2022-12-07T14:23:01;9.52;;;4.30;;
1376;SDS011;682;52.502;13.488;2022-12-07T14:25:43;10.73;;;3.97;;
1376;SDS011;682;52.502;13.488;2022-12-07T14:28:25;12.73;;;2.95;;
1376;SDS011;682;52.502;13.488;2022-12-07T14:30:55;10.35;;;3.17;;
1376;SDS011;682;52.502;13.488;2022-12-07T14:33:29;12.25;;;3.60;;
1376;SDS011;682;52.502;13.488;2022-12-07T14:36:01;6.70;;;2.55;;
1376;SDS011;682;52.502;13.488;2022-12-07T14:38:30;13.80;;;3.50;;
1376;SDS011;682;52.502;13.488;2022-12-07T14:41:03;11.02;;;4.18;;
1376;SDS011;682;52.502;13.488;2022-12-07T14:43:48;9.25;;;3.90;;
1376;SDS011;682;52.502;13.488;2022-12-07T14:46:15;7.93;;;3.60;;
1376;SDS011;682;52.502;13.488;2022-12-07T14:48:54;10.13;;;4.97;;
1376;SDS011;682;52.502;13.488;2022-12-07T14:51:27;11.90;;;4.13;;
1376;SDS011;682;52.502;13.488;2022-12-07T14:53:54;8.88;;;3.67;;
1376;SDS011;682;52.502;13.488;2022-12-07T14:56:28;9.20;;;3.78;;
1376;SDS011;682;52.502;13.488;2022-12-07T14:58:57;13.57;;;4.30;;
1376;SDS011;682;52.502;13.488;2022-12-07T15:01:28;9.55;;;3.20;;
1376;SDS011;682;52.502;13.488;2022-12-07T15:04:01;10.20;;;3.97;;
1376;SDS011;682;52.502;13.488;2022-12-07T15:06:31;9.20;;;3.70;;
1376;SDS011;682;52.502;13.488;2022-12-07T15:09:08;13.38;;;3.65;;
1376;SDS011;682;52.502;13.488;2022-12-07T15:11:42;12.57;;;5.20;;
1376;SDS011;682;52.502;13.488;2022-12-07T15:14:11;12.05;;;3.65;;
1376;SDS011;682;52.502;13.488;2022-12-07T15:16:41;9.05;;;3.55;;
1376;SDS011;682;52.502;13.488;2022-12-07T15:19:12;12.00;;;3.92;;
1376;SDS011;682;52.502;13.488;2022-12-07T15:21:52;11.68;;;3.47;;
1376;SDS011;682;52.502;13.488;2022-12-07T15:24:31;13.85;;;3.75;;
1376;SDS011;682;52.502;13.488;2022-12-07T15:27:02;11.50;;;3.70;;
1376;SDS011;682;52.502;13.488;2022-12-07T15:29:31;8.90;;;3.38;;
1376;SDS011;682;52.502;13.488;2022-12-07T15:32:01;12.45;;;5.05;;
1376;SDS011;682;52.502;13.488;2022-12-07T15:34:31;13.07;;;4.50;;
1376;SDS011;682;52.502;13.488;2022-12-07T15:36:58;10.02;;;4.13;;
1376;SDS011;682;52.502;13.488;2022-12-07T15:39:27;7.68;;;3.50;;
1376;SDS011;682;52.502;13.488;2022-12-07T15:41:59;10.30;;;3.97;;
1376;SDS011;682;52.502;13.488;2022-12-07T15:44:31;10.38;;;4.18;;
1376;SDS011;682;52.502;13.488;2022-12-07T15:47:16;10.63;;;3.80;;
1376;SDS011;682;52.502;13.488;2022-12-07T15:49:43;8.40;;;3.10;;
1376;SDS011;682;52.502;13.488;2022-12-07T15:52:14;14.85;;;4.10;;
1376;SDS011;682;52.502;13.488;2022-12-07T15:54:42;10.10;;;4.72;;
1376;SDS011;682;52.502;13.488;2022-12-07T15:57:13;10.98;;;3.78;;
1376;SDS011;682;52.502;13.488;2022-12-07T15:59:42;11.45;;;3.97;;
1376;SDS011;682;52.502;13.488;2022-12-07T16:02:10;7.90;;;3.60;;
1376;SDS011;682;52.502;13.488;2022-12-07T16:04:40;12.10;;;4.28;;
1376;SDS011;682;52.502;13.488;2022-12-07T16:07:11;10.20;;;3.95;;
1376;SDS011;682;52.502;13.488;2022-12-07T16:09:40;10.95;;;4.72;;
1376;SDS011;682;52.502;13.488;2022-12-07T16:12:12;10.57;;;4.13;;
1376;SDS011;682;52.502;13.488;2022-12-07T16:14:41;11.45;;;4.47;;
1376;SDS011;682;52.502;13.488;2022-12-07T16:17:11;15.45;;;3.72;;
1376;SDS011;682;52.502;13.488;2022-12-07T16:19:41;9.88;;;3.80;;
1376;SDS011;682;52.502;13.488;2022-12-07T16:22:11;8.02;;;3.25;;
1376;SDS011;682;52.502;13.488;2022-12-07T16:24:40;8.32;;;2.72;;
1376;SDS011;682;52.502;13.488;2022-12-07T16:27:10;10.15;;;3.20;;
1376;SDS011;682;52.502;13.488;2022-12-07T16:29:38;9.85;;;3.20;;